createdAt,value
2022-08-16T00:03:44.091Z,29.93
2022-08-16T00:08:47.011Z,29.91
2022-08-16T00:13:53.574Z,29.91
2022-08-16T00:18:56.776Z,29.90
2022-08-16T00:24:00.409Z,29.90
2022-08-16T00:29:06.989Z,29.99
2022-08-16T00:34:08.949Z,29.85
2022-08-16T00:39:20.905Z,29.87
2022-08-16T00:44:23.040Z,29.89
2022-08-16T00:49:39.707Z,29.86
2022-08-16T00:54:46.792Z,29.83
2022-08-16T00:59:58.734Z,29.88
2022-08-16T01:05:11.375Z,29.91
2022-08-16T01:10:16.385Z,29.87
2022-08-16T01:15:19.318Z,29.94
2022-08-16T01:20:30.523Z,29.88
2022-08-16T01:25:37.457Z,29.84
2022-08-16T01:30:49.774Z,29.87
2022-08-16T01:35:57.914Z,29.85
2022-08-16T01:41:12.000Z,29.82
2022-08-16T01:46:37.817Z,29.81
2022-08-16T01:51:44.510Z,29.86
2022-08-16T01:56:46.601Z,29.80
2022-08-16T02:01:59.466Z,29.77
2022-08-16T02:07:05.687Z,29.82
2022-08-16T02:12:42.131Z,29.80
2022-08-16T02:17:31.636Z,29.81
2022-08-16T02:22:36.862Z,29.76
2022-08-16T02:27:40.955Z,29.82
2022-08-16T02:32:50.148Z,29.81
2022-08-16T02:38:08.833Z,29.77
2022-08-16T02:43:11.314Z,29.71
2022-08-16T02:48:28.341Z,29.82
2022-08-16T02:53:33.588Z,29.76
2022-08-16T02:58:35.669Z,29.73
2022-08-16T03:04:29.102Z,29.73
2022-08-16T03:09:00.655Z,29.78
2022-08-16T03:14:07.344Z,29.74
2022-08-16T03:19:10.131Z,29.72
2022-08-16T03:24:28.250Z,29.69
2022-08-16T03:29:33.611Z,29.76
2022-08-16T03:34:35.966Z,29.70
2022-08-16T03:39:42.815Z,29.73
2022-08-16T03:44:49.252Z,29.69
2022-08-16T03:49:52.391Z,29.68
2022-08-16T03:54:57.961Z,29.67
2022-08-16T04:00:01.187Z,29.66
2022-08-16T04:05:08.485Z,29.73
2022-08-16T04:10:36.137Z,29.68
2022-08-16T04:15:35.115Z,29.66
2022-08-16T04:20:37.248Z,29.63
2022-08-16T04:25:42.481Z,29.69
2022-08-16T04:30:50.465Z,29.66
2022-08-16T04:35:55.223Z,29.68
2022-08-16T04:40:58.659Z,29.68
2022-08-16T04:46:02.987Z,29.62
2022-08-16T04:51:11.824Z,29.66
2022-08-16T04:56:16.486Z,29.62
2022-08-16T05:01:19.213Z,29.67
2022-08-16T05:06:21.714Z,29.62
2022-08-16T05:11:43.584Z,29.66
2022-08-16T05:16:45.366Z,29.59
2022-08-16T05:21:47.512Z,29.63
2022-08-16T05:26:51.359Z,29.61
2022-08-16T05:31:53.559Z,29.61
2022-08-16T05:36:58.710Z,29.56
2022-08-16T05:42:00.969Z,29.57
2022-08-16T05:47:02.809Z,29.64
2022-08-16T05:52:11.363Z,29.66
2022-08-16T05:57:20.570Z,29.67
2022-08-16T06:02:28.958Z,29.62
2022-08-16T06:07:32.053Z,29.61
2022-08-16T06:12:34.209Z,29.58
2022-08-16T06:17:43.553Z,29.61
2022-08-16T06:22:47.820Z,29.57
2022-08-16T06:27:59.878Z,29.55
2022-08-16T06:33:04.247Z,29.60
2022-08-16T06:38:06.252Z,29.64
2022-08-16T06:43:28.423Z,29.66
2022-08-16T06:48:32.617Z,29.68
2022-08-16T06:53:36.831Z,29.70
2022-08-16T06:58:38.925Z,29.85
2022-08-16T07:03:55.012Z,29.89
2022-08-16T07:08:59.031Z,29.93
2022-08-16T07:14:23.627Z,29.90
2022-08-16T07:20:01.279Z,29.85
2022-08-16T07:24:45.829Z,29.88
2022-08-16T07:29:48.329Z,29.82
2022-08-16T07:34:50.675Z,29.76
2022-08-16T07:39:54.363Z,29.70
2022-08-16T07:44:58.320Z,29.70
2022-08-16T07:50:05.531Z,29.65
2022-08-16T07:55:14.245Z,29.63
2022-08-16T08:00:18.599Z,29.55
2022-08-16T08:05:35.363Z,29.49
2022-08-16T08:10:37.629Z,29.46
2022-08-16T08:15:40.919Z,29.73
2022-08-16T08:20:59.439Z,29.68
2022-08-16T08:26:02.295Z,29.69
2022-08-16T08:31:04.795Z,29.66
2022-08-16T08:36:11.635Z,29.81
2022-08-16T08:41:29.001Z,29.92
2022-08-16T08:46:35.697Z,29.98
2022-08-16T08:51:41.417Z,30.00
2022-08-16T08:56:45.402Z,29.98
2022-08-16T09:01:58.094Z,30.02
2022-08-16T09:07:01.262Z,30.02
2022-08-16T09:12:06.787Z,30.04
2022-08-16T09:17:21.580Z,30.09
2022-08-16T09:22:30.791Z,30.06
2022-08-16T09:27:56.621Z,30.04
2022-08-16T09:32:54.996Z,30.09
2022-08-16T09:38:00.534Z,30.11
2022-08-16T09:43:05.113Z,30.09
2022-08-16T09:48:09.407Z,30.11
2022-08-16T09:53:21.280Z,30.14
2022-08-16T09:58:40.457Z,30.18
2022-08-16T10:04:02.137Z,30.19
2022-08-16T10:09:08.360Z,30.22
2022-08-16T10:14:16.016Z,30.22
2022-08-16T10:19:19.350Z,30.26
2022-08-16T10:24:27.076Z,30.26
2022-08-16T10:30:00.813Z,30.21
2022-08-16T10:34:52.611Z,30.18
2022-08-16T10:39:55.849Z,30.18
2022-08-16T10:44:57.880Z,30.11
2022-08-16T10:49:59.720Z,30.06
2022-08-16T11:00:24.626Z,30.04
2022-08-16T11:05:26.657Z,30.12
2022-08-16T11:16:01.472Z,30.06
2022-08-16T11:21:03.498Z,30.06
2022-08-16T11:26:23.476Z,30.09
2022-08-16T11:31:26.566Z,29.99
2022-08-16T11:36:29.639Z,30.02
2022-08-16T11:41:34.294Z,30.01
2022-08-16T11:46:45.209Z,30.07
2022-08-16T11:51:50.430Z,30.01
2022-08-16T11:56:57.208Z,30.06
2022-08-16T12:02:30.617Z,30.06
2022-08-16T12:07:23.547Z,30.12
2022-08-16T12:12:28.531Z,30.09
2022-08-16T12:17:32.356Z,30.04
2022-08-16T12:22:38.091Z,30.17
2022-08-16T12:27:41.101Z,30.19
2022-08-16T12:32:43.797Z,30.19
2022-08-16T12:37:56.789Z,30.26
2022-08-16T12:43:01.991Z,30.37
2022-08-16T12:48:34.359Z,30.37
2022-08-16T12:53:39.983Z,30.33
2022-08-16T12:58:49.392Z,30.34
2022-08-16T13:04:11.456Z,30.30
2022-08-16T13:09:21.064Z,30.32
2022-08-16T13:14:31.311Z,30.38
2022-08-16T13:20:03.796Z,30.32
2022-08-16T13:24:58.324Z,30.39
2022-08-16T13:30:00.106Z,30.36
2022-08-16T13:35:01.908Z,30.34
2022-08-16T13:40:05.639Z,30.35
2022-08-16T13:45:16.757Z,30.33
2022-08-16T13:50:18.992Z,30.36
2022-08-16T13:55:33.400Z,30.38
2022-08-16T14:00:35.813Z,30.41
2022-08-16T14:05:37.781Z,30.42
2022-08-16T14:10:40.206Z,30.38
2022-08-16T14:15:42.319Z,30.42
2022-08-16T14:20:48.552Z,30.43
2022-08-16T14:25:53.711Z,30.44
2022-08-16T14:30:56.797Z,30.42
2022-08-16T14:35:59.442Z,30.41
2022-08-16T14:41:02.007Z,30.45
2022-08-16T14:46:07.407Z,30.43
2022-08-16T14:51:10.912Z,30.43
2022-08-16T14:56:17.582Z,30.36
2022-08-16T15:01:57.304Z,30.46
2022-08-16T15:07:00.214Z,30.41
2022-08-16T15:12:27.088Z,30.51
2022-08-16T15:17:33.837Z,30.53
2022-08-16T15:22:43.962Z,30.54
2022-08-16T15:27:55.115Z,30.56
2022-08-16T15:33:03.978Z,30.51
2022-08-16T15:38:09.177Z,30.49
2022-08-16T15:43:11.699Z,30.48
2022-08-16T15:48:13.843Z,30.58
2022-08-16T15:53:22.670Z,30.48
2022-08-16T15:58:34.865Z,30.58
2022-08-16T16:03:37.913Z,30.62
2022-08-16T16:08:41.734Z,30.59
2022-08-16T16:13:44.155Z,30.52
2022-08-16T16:18:48.792Z,30.55
2022-08-16T16:23:55.081Z,30.58
2022-08-16T16:29:08.510Z,30.56
2022-08-16T16:34:16.765Z,30.53
2022-08-16T16:39:19.488Z,30.57
2022-08-16T16:44:33.551Z,30.45
2022-08-16T16:49:41.628Z,30.50
2022-08-16T16:54:43.728Z,30.50
2022-08-16T16:59:50.057Z,30.47
2022-08-16T17:04:57.729Z,30.59
2022-08-16T17:10:04.087Z,30.48
2022-08-16T17:15:08.025Z,30.42
2022-08-16T17:20:12.783Z,30.50
2022-08-16T17:25:14.821Z,30.45
2022-08-16T17:30:21.335Z,30.58
2022-08-16T17:35:34.122Z,30.60
2022-08-16T17:40:49.477Z,30.64
2022-08-16T17:45:57.848Z,30.59
2022-08-16T17:51:00.202Z,30.53
2022-08-16T17:56:02.422Z,30.59
2022-08-16T18:01:05.066Z,30.60
2022-08-16T18:06:13.733Z,30.47
2022-08-16T18:11:19.136Z,30.37
2022-08-16T18:16:28.130Z,30.38
2022-08-16T18:21:48.425Z,30.35
2022-08-16T18:26:50.704Z,30.29
2022-08-16T18:31:52.631Z,30.38
2022-08-16T18:36:54.568Z,30.34
2022-08-16T18:41:56.698Z,30.22
2022-08-16T18:46:58.515Z,30.33
2022-08-16T18:52:01.552Z,30.29
2022-08-16T18:57:07.860Z,30.24
2022-08-16T19:02:10.046Z,30.30
2022-08-16T19:07:32.092Z,30.28
2022-08-16T19:12:38.296Z,30.29
2022-08-16T19:17:45.399Z,30.29
2022-08-16T19:23:05.204Z,30.09
2022-08-16T19:28:08.832Z,30.23
2022-08-16T19:33:31.635Z,30.08
2022-08-16T19:38:33.775Z,30.20
2022-08-16T19:43:36.417Z,30.25
2022-08-16T19:48:38.524Z,30.15
2022-08-16T19:53:40.567Z,30.11
2022-08-16T19:58:56.353Z,30.22
2022-08-16T20:04:05.455Z,30.29
2022-08-16T20:09:07.594Z,30.31
2022-08-16T20:14:09.548Z,30.34
2022-08-16T20:19:11.596Z,30.33
2022-08-16T20:24:32.566Z,30.37
2022-08-16T20:29:37.143Z,30.28
2022-08-16T20:34:39.424Z,30.30
2022-08-16T20:39:46.384Z,30.25
2022-08-16T20:44:49.067Z,30.33
2022-08-16T20:49:53.780Z,30.28
2022-08-16T20:54:56.288Z,30.32
2022-08-16T20:59:58.283Z,30.22
2022-08-16T21:05:00.054Z,30.27
2022-08-16T21:10:02.451Z,30.24
2022-08-16T21:15:08.873Z,30.30
2022-08-16T21:20:11.693Z,30.31
2022-08-16T21:25:13.555Z,30.38
2022-08-16T21:30:16.984Z,30.38
2022-08-16T21:35:21.782Z,30.33
2022-08-16T21:40:25.073Z,30.37
2022-08-16T21:45:27.068Z,30.33
2022-08-16T21:50:29.534Z,30.29
2022-08-16T21:55:31.509Z,30.10
2022-08-16T22:00:34.005Z,30.09
2022-08-16T22:05:37.003Z,30.12
2022-08-16T22:11:06.140Z,30.20
2022-08-16T22:16:00.741Z,30.18
2022-08-16T22:21:02.671Z,30.24
2022-08-16T22:26:04.811Z,30.24
2022-08-16T22:31:06.638Z,30.25
2022-08-16T22:36:08.799Z,30.24
2022-08-16T22:41:10.644Z,30.19
2022-08-16T22:46:12.484Z,30.26
2022-08-16T22:51:14.438Z,30.24
2022-08-16T22:56:17.584Z,30.30
2022-08-16T23:01:21.891Z,30.29
2022-08-16T23:06:24.803Z,30.25
2022-08-16T23:11:26.729Z,30.18
2022-08-16T23:16:32.527Z,30.24
2022-08-16T23:21:38.867Z,30.24
2022-08-16T23:26:46.784Z,30.19
2022-08-16T23:31:50.557Z,30.22
2022-08-16T23:36:56.659Z,30.21
2022-08-16T23:41:58.990Z,30.20
2022-08-16T23:47:00.855Z,30.19
2022-08-16T23:52:09.590Z,30.15
2022-08-16T23:57:11.557Z,30.17
